Chimney Rock, North Carolina
Current Conditions -  °F | °C
As of 8:01 PM on Thursday 27 Nov 2014 (Local Time) from KAVL Reporting Station
Overcast Overcast  
Wind Chill: 23°   Ceiling: 3100
Heat Index: 32°   Visibility: 10mi
Dew Point: 24°   Wind: 13mph
Humidity: 73%   Direction: 350°N
Pressure: 30.25"   Gusts: 24mph
Location:  35.44°N, 82.25°W
Report Text: KAVL 280101Z 35011G21KT 10SM BKN031 OVC041 00/M04 A3025 RMK AO2 T00001044
Loading
Personal Weather Stations






























Interactive Weather Map New forecast layout! Learn more

10-Day Weather Forecast

Advertisements
Track Severe Weather on mobile